Delta Virtual Airport Information Service

Vienna International Airport

ICAO: LOWW Country: Austria
Latitude: 48.1103 Longitude: 16.5697
Latest Arrival : EIN660 (EIDW-LOWW) Latest Departure : BAW705 (2) (LOWW-EGLL)


WX CaptureLIVE
Data provided by noaa.gov | Fetched at 00:11:15

METAR : LOWW 080550Z 31010KT CAVOK M00/M05 Q1018 NOSIG

TAF : LOWW 080515Z 0806/0912 32012KT CAVOK TX07/0813Z TNM03/0905Z BECMG 0818/0820 VRB03KT BECMG 0908/0910 12008KT


Runway Data for LOWW
Data provided by openaviationdata.com

Runway ID Mag Var Hdg Length Elevation Surface ILS Freq ILS Id ILS Slope
11 2 113° 11463 ft 600 ft Bituminous 110.3 OEW 3
16 2 162° 11808 ft 600 ft Bituminous 108.5 OEZ 3
29 2 293° 11463 ft 600 ft Bituminous 109.55 OEX 3
34 2 342° 11808 ft 600 ft Bituminous 108.1 OEN 3

Vienna International Airport, Austria
Use only for reference purposes



Not for navigational purposes.